sensor_id;sensor_type;location;lat;lon;timestamp;P1;durP1;ratioP1;P2;durP2;ratioP2
62010;SDS011;47967;51.756;10.174;2022-11-12T05:01:38;5.97;;;3.25;;
62010;SDS011;47967;51.756;10.174;2022-11-12T05:06:00;6.57;;;3.45;;
62010;SDS011;47967;51.756;10.174;2022-11-12T05:10:21;14.50;;;4.97;;
62010;SDS011;47967;51.756;10.174;2022-11-12T05:14:42;5.88;;;3.40;;
62010;SDS011;47967;51.756;10.174;2022-11-12T05:19:05;8.93;;;3.65;;
62010;SDS011;47967;51.756;10.174;2022-11-12T05:23:26;9.20;;;4.45;;
62010;SDS011;47967;51.756;10.174;2022-11-12T05:27:47;7.80;;;4.20;;
62010;SDS011;47967;51.756;10.174;2022-11-12T05:36:54;10.25;;;4.68;;
62010;SDS011;47967;51.756;10.174;2022-11-12T05:41:15;13.00;;;5.83;;
62010;SDS011;47967;51.756;10.174;2022-11-12T05:45:40;9.57;;;4.97;;
62010;SDS011;47967;51.756;10.174;2022-11-12T05:50:02;10.10;;;5.15;;
62010;SDS011;47967;51.756;10.174;2022-11-12T05:54:25;9.63;;;5.03;;
62010;SDS011;47967;51.756;10.174;2022-11-12T05:58:46;9.93;;;5.35;;
62010;SDS011;47967;51.756;10.174;2022-11-12T06:03:07;8.48;;;4.30;;
62010;SDS011;47967;51.756;10.174;2022-11-12T06:07:29;7.20;;;3.83;;
62010;SDS011;47967;51.756;10.174;2022-11-12T06:11:51;9.20;;;4.15;;
62010;SDS011;47967;51.756;10.174;2022-11-12T06:16:12;6.95;;;4.03;;
62010;SDS011;47967;51.756;10.174;2022-11-12T06:20:34;7.95;;;3.83;;
62010;SDS011;47967;51.756;10.174;2022-11-12T06:24:55;8.60;;;4.90;;
62010;SDS011;47967;51.756;10.174;2022-11-12T06:29:18;5.63;;;3.45;;
62010;SDS011;47967;51.756;10.174;2022-11-12T06:33:39;7.70;;;3.80;;
62010;SDS011;47967;51.756;10.174;2022-11-12T06:38:00;15.65;;;4.15;;
62010;SDS011;47967;51.756;10.174;2022-11-12T06:42:22;8.40;;;3.80;;
62010;SDS011;47967;51.756;10.174;2022-11-12T06:46:44;5.65;;;3.35;;
62010;SDS011;47967;51.756;10.174;2022-11-12T06:51:06;8.45;;;3.55;;
62010;SDS011;47967;51.756;10.174;2022-11-12T06:55:30;7.35;;;3.67;;
62010;SDS011;47967;51.756;10.174;2022-11-12T06:59:51;6.50;;;3.95;;
62010;SDS011;47967;51.756;10.174;2022-11-12T07:04:14;12.02;;;4.40;;
62010;SDS011;47967;51.756;10.174;2022-11-12T07:08:35;7.72;;;3.80;;
62010;SDS011;47967;51.756;10.174;2022-11-12T07:12:57;9.93;;;4.78;;
62010;SDS011;47967;51.756;10.174;2022-11-12T07:17:19;11.48;;;4.70;;
62010;SDS011;47967;51.756;10.174;2022-11-12T07:21:41;10.20;;;4.70;;
62010;SDS011;47967;51.756;10.174;2022-11-12T07:26:03;8.68;;;4.30;;
62010;SDS011;47967;51.756;10.174;2022-11-12T07:30:26;9.07;;;4.93;;
62010;SDS011;47967;51.756;10.174;2022-11-12T07:34:48;7.35;;;4.50;;
62010;SDS011;47967;51.756;10.174;2022-11-12T07:39:11;8.43;;;4.57;;
62010;SDS011;47967;51.756;10.174;2022-11-12T07:43:33;8.65;;;4.95;;
62010;SDS011;47967;51.756;10.174;2022-11-12T07:47:57;9.70;;;4.93;;
62010;SDS011;47967;51.756;10.174;2022-11-12T07:52:18;8.35;;;4.65;;
62010;SDS011;47967;51.756;10.174;2022-11-12T07:56:40;11.65;;;4.47;;
62010;SDS011;47967;51.756;10.174;2022-11-12T08:01:06;9.50;;;4.50;;
62010;SDS011;47967;51.756;10.174;2022-11-12T08:05:28;8.10;;;4.93;;
62010;SDS011;47967;51.756;10.174;2022-11-12T08:09:49;9.07;;;5.20;;
62010;SDS011;47967;51.756;10.174;2022-11-12T08:14:11;12.20;;;5.32;;
62010;SDS011;47967;51.756;10.174;2022-11-12T08:18:32;11.07;;;6.15;;
62010;SDS011;47967;51.756;10.174;2022-11-12T08:22:53;10.15;;;5.82;;
62010;SDS011;47967;51.756;10.174;2022-11-12T08:27:19;8.13;;;5.50;;
62010;SDS011;47967;51.756;10.174;2022-11-12T08:31:42;9.85;;;5.68;;
62010;SDS011;47967;51.756;10.174;2022-11-12T08:36:03;10.05;;;5.88;;
62010;SDS011;47967;51.756;10.174;2022-11-12T08:40:25;11.35;;;5.38;;
62010;SDS011;47967;51.756;10.174;2022-11-12T08:44:47;9.10;;;5.40;;
62010;SDS011;47967;51.756;10.174;2022-11-12T08:49:10;9.98;;;5.30;;
62010;SDS011;47967;51.756;10.174;2022-11-12T08:53:31;9.85;;;4.97;;
62010;SDS011;47967;51.756;10.174;2022-11-12T08:57:52;8.13;;;4.82;;
62010;SDS011;47967;51.756;10.174;2022-11-12T09:02:13;8.25;;;4.38;;
62010;SDS011;47967;51.756;10.174;2022-11-12T09:06:35;7.20;;;4.18;;
62010;SDS011;47967;51.756;10.174;2022-11-12T09:10:57;5.63;;;3.90;;
62010;SDS011;47967;51.756;10.174;2022-11-12T09:15:19;7.28;;;3.90;;
62010;SDS011;47967;51.756;10.174;2022-11-12T09:19:57;7.85;;;4.55;;
62010;SDS011;47967;51.756;10.174;2022-11-12T09:24:20;9.48;;;6.03;;
62010;SDS011;47967;51.756;10.174;2022-11-12T09:28:41;9.52;;;5.78;;
62010;SDS011;47967;51.756;10.174;2022-11-12T09:33:02;9.77;;;6.13;;
62010;SDS011;47967;51.756;10.174;2022-11-12T09:37:24;10.10;;;4.93;;
62010;SDS011;47967;51.756;10.174;2022-11-12T09:41:46;8.95;;;4.30;;
62010;SDS011;47967;51.756;10.174;2022-11-12T09:46:08;4.55;;;3.33;;
62010;SDS011;47967;51.756;10.174;2022-11-12T09:50:49;6.75;;;3.22;;
62010;SDS011;47967;51.756;10.174;2022-11-12T09:55:20;4.75;;;2.65;;
62010;SDS011;47967;51.756;10.174;2022-11-12T09:59:46;6.93;;;3.00;;
62010;SDS011;47967;51.756;10.174;2022-11-12T10:04:21;5.63;;;3.00;;
62010;SDS011;47967;51.756;10.174;2022-11-12T10:08:58;6.03;;;3.15;;
62010;SDS011;47967;51.756;10.174;2022-11-12T10:13:24;5.60;;;3.40;;
62010;SDS011;47967;51.756;10.174;2022-11-12T10:18:02;9.15;;;3.25;;
62010;SDS011;47967;51.756;10.174;2022-11-12T10:22:33;6.13;;;3.75;;
62010;SDS011;47967;51.756;10.174;2022-11-12T10:27:01;8.23;;;3.25;;
62010;SDS011;47967;51.756;10.174;2022-11-12T10:31:23;7.18;;;3.67;;
62010;SDS011;47967;51.756;10.174;2022-11-12T10:35:45;7.25;;;3.30;;
62010;SDS011;47967;51.756;10.174;2022-11-12T10:40:24;9.93;;;3.75;;
62010;SDS011;47967;51.756;10.174;2022-11-12T10:44:48;11.30;;;3.40;;
62010;SDS011;47967;51.756;10.174;2022-11-12T10:49:20;6.32;;;3.30;;
62010;SDS011;47967;51.756;10.174;2022-11-12T10:53:45;7.75;;;3.35;;
62010;SDS011;47967;51.756;10.174;2022-11-12T10:58:13;6.47;;;3.30;;
62010;SDS011;47967;51.756;10.174;2022-11-12T11:02:42;6.40;;;3.65;;
62010;SDS011;47967;51.756;10.174;2022-11-12T11:07:15;5.70;;;3.05;;
62010;SDS011;47967;51.756;10.174;2022-11-12T11:11:48;6.47;;;3.25;;
62010;SDS011;47967;51.756;10.174;2022-11-12T11:16:12;8.48;;;4.38;;
62010;SDS011;47967;51.756;10.174;2022-11-12T11:29:36;4.38;;;2.83;;
62010;SDS011;47967;51.756;10.174;2022-11-12T11:34:12;4.68;;;2.40;;
62010;SDS011;47967;51.756;10.174;2022-11-12T11:38:48;4.75;;;2.20;;
62010;SDS011;47967;51.756;10.174;2022-11-12T11:43:24;5.32;;;2.13;;
62010;SDS011;47967;51.756;10.174;2022-11-12T11:47:59;3.88;;;2.10;;
62010;SDS011;47967;51.756;10.174;2022-11-12T11:52:30;7.05;;;2.85;;
62010;SDS011;47967;51.756;10.174;2022-11-12T11:56:58;7.20;;;2.92;;
62010;SDS011;47967;51.756;10.174;2022-11-12T12:01:25;5.68;;;2.42;;
62010;SDS011;47967;51.756;10.174;2022-11-12T12:06:04;3.65;;;2.20;;
62010;SDS011;47967;51.756;10.174;2022-11-12T12:10:41;8.10;;;2.60;;
62010;SDS011;47967;51.756;10.174;2022-11-12T12:15:34;4.50;;;2.25;;
62010;SDS011;47967;51.756;10.174;2022-11-12T12:20:07;5.45;;;2.83;;
62010;SDS011;47967;51.756;10.174;2022-11-12T12:24:40;5.07;;;2.80;;
62010;SDS011;47967;51.756;10.174;2022-11-12T12:29:10;7.72;;;3.00;;
62010;SDS011;47967;51.756;10.174;2022-11-12T12:33:36;6.75;;;2.97;;
62010;SDS011;47967;51.756;10.174;2022-11-12T12:38:05;4.70;;;3.53;;
62010;SDS011;47967;51.756;10.174;2022-11-12T12:42:34;8.60;;;4.10;;
62010;SDS011;47967;51.756;10.174;2022-11-12T12:47:01;9.07;;;5.10;;
62010;SDS011;47967;51.756;10.174;2022-11-12T12:51:23;5.25;;;2.92;;
62010;SDS011;47967;51.756;10.174;2022-11-12T12:55:48;6.88;;;3.20;;
62010;SDS011;47967;51.756;10.174;2022-11-12T13:00:25;5.70;;;3.00;;
62010;SDS011;47967;51.756;10.174;2022-11-12T13:04:49;8.13;;;3.22;;
62010;SDS011;47967;51.756;10.174;2022-11-12T13:09:19;6.05;;;2.65;;
62010;SDS011;47967;51.756;10.174;2022-11-12T13:13:44;5.72;;;2.80;;
62010;SDS011;47967;51.756;10.174;2022-11-12T13:18:07;8.18;;;2.70;;
62010;SDS011;47967;51.756;10.174;2022-11-12T13:22:47;5.93;;;3.05;;
62010;SDS011;47967;51.756;10.174;2022-11-12T13:27:10;7.50;;;3.08;;
62010;SDS011;47967;51.756;10.174;2022-11-12T13:31:31;4.88;;;3.20;;
62010;SDS011;47967;51.756;10.174;2022-11-12T13:35:58;10.75;;;3.70;;
62010;SDS011;47967;51.756;10.174;2022-11-12T13:40:44;6.60;;;3.67;;
62010;SDS011;47967;51.756;10.174;2022-11-12T13:45:08;12.48;;;6.53;;
62010;SDS011;47967;51.756;10.174;2022-11-12T13:49:32;6.00;;;3.30;;
62010;SDS011;47967;51.756;10.174;2022-11-12T13:53:56;6.95;;;3.70;;
62010;SDS011;47967;51.756;10.174;2022-11-12T13:58:18;5.53;;;3.47;;
62010;SDS011;47967;51.756;10.174;2022-11-12T14:02:47;10.38;;;3.70;;
62010;SDS011;47967;51.756;10.174;2022-11-12T14:07:12;8.15;;;3.33;;
62010;SDS011;47967;51.756;10.174;2022-11-12T14:11:55;7.00;;;3.30;;
62010;SDS011;47967;51.756;10.174;2022-11-12T14:16:30;6.72;;;3.42;;
62010;SDS011;47967;51.756;10.174;2022-11-12T14:20:57;4.75;;;3.15;;
62010;SDS011;47967;51.756;10.174;2022-11-12T14:25:26;5.07;;;3.00;;
62010;SDS011;47967;51.756;10.174;2022-11-12T14:29:50;7.82;;;3.42;;
62010;SDS011;47967;51.756;10.174;2022-11-12T14:34:26;7.47;;;3.42;;
62010;SDS011;47967;51.756;10.174;2022-11-12T14:38:49;11.40;;;5.07;;
62010;SDS011;47967;51.756;10.174;2022-11-12T14:43:20;10.48;;;5.63;;
62010;SDS011;47967;51.756;10.174;2022-11-12T14:47:49;7.20;;;4.47;;
62010;SDS011;47967;51.756;10.174;2022-11-12T14:52:13;6.50;;;4.65;;
62010;SDS011;47967;51.756;10.174;2022-11-12T14:56:38;8.07;;;3.72;;
62010;SDS011;47967;51.756;10.174;2022-11-12T15:01:18;7.35;;;3.33;;
62010;SDS011;47967;51.756;10.174;2022-11-12T15:06:09;6.15;;;2.95;;
62010;SDS011;47967;51.756;10.174;2022-11-12T15:10:32;5.13;;;2.90;;
62010;SDS011;47967;51.756;10.174;2022-11-12T15:15:02;5.10;;;2.90;;
62010;SDS011;47967;51.756;10.174;2022-11-12T15:19:29;4.57;;;2.88;;
62010;SDS011;47967;51.756;10.174;2022-11-12T15:23:52;8.55;;;3.00;;
62010;SDS011;47967;51.756;10.174;2022-11-12T15:28:20;7.63;;;2.50;;
62010;SDS011;47967;51.756;10.174;2022-11-12T15:32:43;6.05;;;2.63;;
62010;SDS011;47967;51.756;10.174;2022-11-12T15:37:05;6.07;;;3.00;;
62010;SDS011;47967;51.756;10.174;2022-11-12T15:45:53;8.90;;;3.28;;
62010;SDS011;47967;51.756;10.174;2022-11-12T15:50:16;8.85;;;4.45;;
62010;SDS011;47967;51.756;10.174;2022-11-12T15:54:40;8.68;;;3.20;;
62010;SDS011;47967;51.756;10.174;2022-11-12T15:59:03;5.72;;;3.50;;
62010;SDS011;47967;51.756;10.174;2022-11-12T16:03:24;20.33;;;12.07;;
62010;SDS011;47967;51.756;10.174;2022-11-12T16:07:46;14.02;;;8.90;;
62010;SDS011;47967;51.756;10.174;2022-11-12T16:12:07;9.20;;;3.70;;
62010;SDS011;47967;51.756;10.174;2022-11-12T16:16:31;9.40;;;6.50;;
62010;SDS011;47967;51.756;10.174;2022-11-12T16:20:54;9.88;;;5.15;;
62010;SDS011;47967;51.756;10.174;2022-11-12T16:25:15;11.85;;;5.43;;
62010;SDS011;47967;51.756;10.174;2022-11-12T16:29:37;14.52;;;7.68;;
62010;SDS011;47967;51.756;10.174;2022-11-12T16:33:59;11.68;;;6.35;;
62010;SDS011;47967;51.756;10.174;2022-11-12T16:38:20;8.13;;;4.75;;
62010;SDS011;47967;51.756;10.174;2022-11-12T16:42:44;9.43;;;4.82;;
62010;SDS011;47967;51.756;10.174;2022-11-12T16:47:05;10.07;;;7.32;;
62010;SDS011;47967;51.756;10.174;2022-11-12T16:51:27;9.20;;;5.57;;
62010;SDS011;47967;51.756;10.174;2022-11-12T16:55:49;7.50;;;4.90;;
62010;SDS011;47967;51.756;10.174;2022-11-12T17:00:11;12.15;;;7.18;;
62010;SDS011;47967;51.756;10.174;2022-11-12T17:08:56;11.32;;;6.63;;
62010;SDS011;47967;51.756;10.174;2022-11-12T17:13:17;14.68;;;8.27;;
62010;SDS011;47967;51.756;10.174;2022-11-12T17:17:39;16.08;;;8.65;;
62010;SDS011;47967;51.756;10.174;2022-11-12T17:22:00;17.50;;;9.70;;
62010;SDS011;47967;51.756;10.174;2022-11-12T17:26:22;15.88;;;9.07;;
62010;SDS011;47967;51.756;10.174;2022-11-12T17:30:44;23.17;;;9.43;;
62010;SDS011;47967;51.756;10.174;2022-11-12T17:35:05;15.55;;;7.45;;
62010;SDS011;47967;51.756;10.174;2022-11-12T17:39:27;15.32;;;9.40;;
62010;SDS011;47967;51.756;10.174;2022-11-12T17:43:53;16.92;;;9.18;;
62010;SDS011;47967;51.756;10.174;2022-11-12T17:48:15;28.63;;;17.35;;
62010;SDS011;47967;51.756;10.174;2022-11-12T17:52:36;21.60;;;10.95;;
62010;SDS011;47967;51.756;10.174;2022-11-12T17:56:57;10.13;;;6.18;;
62010;SDS011;47967;51.756;10.174;2022-11-12T18:01:20;13.82;;;8.15;;
62010;SDS011;47967;51.756;10.174;2022-11-12T18:05:42;14.90;;;8.27;;
62010;SDS011;47967;51.756;10.174;2022-11-12T18:10:04;13.82;;;7.63;;
62010;SDS011;47967;51.756;10.174;2022-11-12T18:14:25;11.27;;;6.82;;
62010;SDS011;47967;51.756;10.174;2022-11-12T18:18:48;18.52;;;8.18;;
62010;SDS011;47967;51.756;10.174;2022-11-12T18:23:09;12.75;;;7.18;;
62010;SDS011;47967;51.756;10.174;2022-11-12T18:27:30;12.88;;;7.80;;
62010;SDS011;47967;51.756;10.174;2022-11-12T18:31:51;26.60;;;13.73;;
62010;SDS011;47967;51.756;10.174;2022-11-12T18:36:15;16.02;;;10.50;;
62010;SDS011;47967;51.756;10.174;2022-11-12T18:40:38;18.15;;;11.85;;
62010;SDS011;47967;51.756;10.174;2022-11-12T18:44:59;40.85;;;20.17;;
62010;SDS011;47967;51.756;10.174;2022-11-12T18:49:20;26.00;;;14.50;;
62010;SDS011;47967;51.756;10.174;2022-11-12T18:53:43;30.00;;;15.38;;
62010;SDS011;47967;51.756;10.174;2022-11-12T18:58:05;33.85;;;17.33;;
62010;SDS011;47967;51.756;10.174;2022-11-12T19:02:26;60.60;;;27.23;;
62010;SDS011;47967;51.756;10.174;2022-11-12T19:06:47;27.30;;;14.70;;
62010;SDS011;47967;51.756;10.174;2022-11-12T19:11:11;35.03;;;16.55;;
62010;SDS011;47967;51.756;10.174;2022-11-12T19:15:33;73.80;;;31.23;;
62010;SDS011;47967;51.756;10.174;2022-11-12T19:19:54;72.18;;;32.30;;
62010;SDS011;47967;51.756;10.174;2022-11-12T19:24:15;49.38;;;23.20;;
62010;SDS011;47967;51.756;10.174;2022-11-12T19:28:38;53.83;;;24.25;;
62010;SDS011;47967;51.756;10.174;2022-11-12T19:33:00;43.67;;;20.08;;
62010;SDS011;47967;51.756;10.174;2022-11-12T19:37:21;38.67;;;18.40;;
62010;SDS011;47967;51.756;10.174;2022-11-12T19:41:58;36.65;;;18.13;;
62010;SDS011;47967;51.756;10.174;2022-11-12T19:46:20;28.50;;;14.32;;
62010;SDS011;47967;51.756;10.174;2022-11-12T19:50:41;20.67;;;10.05;;
62010;SDS011;47967;51.756;10.174;2022-11-12T19:55:02;21.02;;;10.52;;
62010;SDS011;47967;51.756;10.174;2022-11-12T19:59:24;35.72;;;17.92;;
62010;SDS011;47967;51.756;10.174;2022-11-12T20:03:47;21.55;;;11.68;;
62010;SDS011;47967;51.756;10.174;2022-11-12T20:08:08;24.63;;;12.23;;
62010;SDS011;47967;51.756;10.174;2022-11-12T20:12:29;27.70;;;14.90;;
62010;SDS011;47967;51.756;10.174;2022-11-12T20:16:51;25.02;;;13.25;;
62010;SDS011;47967;51.756;10.174;2022-11-12T20:21:14;18.65;;;10.25;;
62010;SDS011;47967;51.756;10.174;2022-11-12T20:25:35;17.48;;;8.73;;
62010;SDS011;47967;51.756;10.174;2022-11-12T20:29:56;9.68;;;5.55;;
62010;SDS011;47967;51.756;10.174;2022-11-12T20:34:17;19.75;;;10.07;;
62010;SDS011;47967;51.756;10.174;2022-11-12T20:38:40;27.00;;;14.48;;
62010;SDS011;47967;51.756;10.174;2022-11-12T20:43:03;23.42;;;13.27;;
62010;SDS011;47967;51.756;10.174;2022-11-12T20:47:24;23.35;;;13.32;;
62010;SDS011;47967;51.756;10.174;2022-11-12T20:51:45;16.77;;;9.57;;
62010;SDS011;47967;51.756;10.174;2022-11-12T20:56:08;21.60;;;11.38;;
62010;SDS011;47967;51.756;10.174;2022-11-12T21:00:31;19.15;;;11.38;;
62010;SDS011;47967;51.756;10.174;2022-11-12T21:04:52;19.02;;;10.98;;
62010;SDS011;47967;51.756;10.174;2022-11-12T21:09:13;23.58;;;12.98;;
62010;SDS011;47967;51.756;10.174;2022-11-12T21:13:36;17.65;;;9.60;;
62010;SDS011;47967;51.756;10.174;2022-11-12T21:17:58;15.30;;;7.82;;
62010;SDS011;47967;51.756;10.174;2022-11-12T21:22:20;14.65;;;9.07;;
62010;SDS011;47967;51.756;10.174;2022-11-12T21:26:41;16.73;;;8.77;;
62010;SDS011;47967;51.756;10.174;2022-11-12T21:31:05;17.58;;;9.25;;
62010;SDS011;47967;51.756;10.174;2022-11-12T21:35:27;16.38;;;9.27;;
62010;SDS011;47967;51.756;10.174;2022-11-12T21:39:48;29.80;;;14.82;;
62010;SDS011;47967;51.756;10.174;2022-11-12T21:44:09;20.17;;;10.90;;
62010;SDS011;47967;51.756;10.174;2022-11-12T21:48:31;14.52;;;8.90;;
62010;SDS011;47967;51.756;10.174;2022-11-12T21:52:54;17.02;;;9.75;;
62010;SDS011;47967;51.756;10.174;2022-11-12T21:57:16;18.15;;;9.95;;
